Time;durP1;ratioP1;P1;durP2;ratioP2;P2;SDS_P1;SDS_P2;PMS_P1;PMS_P2;Temp;Humidity;BMP_temperature;BMP_pressure;BME280_temperature;BME280_humidity;BME280_pressure;Samples;Min_cycle;Max_cycle;Signal;HPM_P1;HPM_P2
2021/12/06 00:00:50;;;;;;;1.50;1.40;;;;;;;;;;2074609;28;20038;-77
2021/12/06 00:02:19;;;;;;;3.83;1.73;;;;;;;;;;2078376;28;20033;-77
2021/12/06 00:03:41;;;;;;;1.73;1.63;;;;;;;;;;2079799;28;20452;-76
2021/12/06 00:05:01;;;;;;;1.75;1.65;;;;;;;;;;2077544;28;20409;-77
2021/12/06 00:06:21;;;;;;;2.15;1.95;;;;;;;;;;2077895;28;20029;-77
2021/12/06 00:07:40;;;;;;;3.10;1.73;;;;;;;;;;2076945;28;20498;-77
2021/12/06 00:09:00;;;;;;;1.70;1.60;;;;;;;;;;2080123;28;20105;-78
2021/12/06 00:10:19;;;;;;;2.50;1.70;;;;;;;;;;2079017;28;20017;-77
2021/12/06 00:11:39;;;;;;;2.22;1.60;;;;;;;;;;2078625;28;20541;-77
2021/12/06 00:12:58;;;;;;;3.88;1.90;;;;;;;;;;2075120;28;20045;-77
2021/12/06 00:14:17;;;;;;;3.67;1.70;;;;;;;;;;2076793;28;20116;-77
2021/12/06 00:15:36;;;;;;;4.15;1.90;;;;;;;;;;2076985;28;20104;-77
2021/12/06 00:16:57;;;;;;;1.63;1.52;;;;;;;;;;2078717;28;20033;-77
2021/12/06 00:18:17;;;;;;;1.55;1.45;;;;;;;;;;2084290;28;20018;-77
2021/12/06 00:19:37;;;;;;;2.65;1.67;;;;;;;;;;2080111;28;20025;-77
2021/12/06 00:20:56;;;;;;;2.15;1.58;;;;;;;;;;2080531;28;20022;-78
2021/12/06 00:22:16;;;;;;;2.13;1.50;;;;;;;;;;2079524;28;20038;-77
2021/12/06 00:23:35;;;;;;;4.60;2.00;;;;;;;;;;2085811;28;20025;-77
2021/12/06 00:24:55;;;;;;;1.58;1.48;;;;;;;;;;2080336;28;20381;-77
2021/12/06 00:26:14;;;;;;;2.08;1.70;;;;;;;;;;2084172;28;20104;-77
2021/12/06 00:27:33;;;;;;;2.13;1.67;;;;;;;;;;2079852;28;20448;-76
2021/12/06 00:28:57;;;;;;;8.45;1.95;;;;;;;;;;2076900;28;20456;-77
2021/12/06 00:30:17;;;;;;;2.38;1.90;;;;;;;;;;2077306;28;20497;-79
2021/12/06 00:31:36;;;;;;;2.97;1.63;;;;;;;;;;2077637;28;20033;-77
2021/12/06 00:32:55;;;;;;;1.52;1.42;;;;;;;;;;2077749;28;20041;-78
2021/12/06 00:34:16;;;;;;;3.28;1.20;;;;;;;;;;2077155;28;21107;-77
2021/12/06 00:35:36;;;;;;;1.80;1.70;;;;;;;;;;2081437;28;20061;-77
2021/12/06 00:37:05;;;;;;;3.60;1.58;;;;;;;;;;2078711;28;20017;-77
2021/12/06 00:38:24;;;;;;;2.65;1.60;;;;;;;;;;2079471;28;20034;-77
2021/12/06 00:39:50;;;;;;;1.45;1.35;;;;;;;;;;2079022;28;20402;-76
2021/12/06 00:41:09;;;;;;;2.47;1.55;;;;;;;;;;2080635;28;20100;-77
2021/12/06 00:42:31;;;;;;;3.55;1.40;;;;;;;;;;2075819;28;20029;-77
2021/12/06 00:43:50;;;;;;;1.50;1.37;;;;;;;;;;2085354;28;20029;-79
2021/12/06 00:45:09;;;;;;;2.58;1.70;;;;;;;;;;2084862;28;20239;-77
2021/12/06 00:46:29;;;;;;;3.45;1.60;;;;;;;;;;2080432;28;20462;-77
2021/12/06 00:47:48;;;;;;;3.15;1.50;;;;;;;;;;2080481;28;20042;-78
2021/12/06 00:49:08;;;;;;;1.80;1.50;;;;;;;;;;2079803;28;21011;-77
2021/12/06 00:50:29;;;;;;;2.38;1.23;;;;;;;;;;2088254;28;20033;-78
2021/12/06 00:51:48;;;;;;;1.73;1.58;;;;;;;;;;2075251;28;20034;-77
2021/12/06 00:53:07;;;;;;;1.67;1.58;;;;;;;;;;2072119;28;20386;-78
2021/12/06 00:54:26;;;;;;;2.05;1.85;;;;;;;;;;2077118;28;20037;-77
2021/12/06 00:55:45;;;;;;;2.67;1.73;;;;;;;;;;2081442;28;20425;-77
2021/12/06 00:57:06;;;;;;;4.00;1.40;;;;;;;;;;2080031;28;20104;-77
2021/12/06 00:58:25;;;;;;;3.05;1.48;;;;;;;;;;2076781;28;20121;-77
2021/12/06 00:59:45;;;;;;;1.80;1.35;;;;;;;;;;2079881;28;20518;-77
2021/12/06 01:01:04;;;;;;;4.05;1.65;;;;;;;;;;2076170;28;20037;-77
2021/12/06 01:02:23;;;;;;;1.60;1.50;;;;;;;;;;2076829;28;20038;-77
2021/12/06 01:03:43;;;;;;;2.58;1.40;;;;;;;;;;2076375;28;20041;-77
2021/12/06 01:05:03;;;;;;;1.92;1.60;;;;;;;;;;2080568;28;20033;-78
2021/12/06 01:06:22;;;;;;;4.63;2.00;;;;;;;;;;2080630;28;20069;-78
2021/12/06 01:07:41;;;;;;;3.05;2.00;;;;;;;;;;2075967;28;20038;-77
2021/12/06 01:09:00;;;;;;;2.17;1.80;;;;;;;;;;2078568;28;20433;-77
2021/12/06 01:10:20;;;;;;;1.65;1.50;;;;;;;;;;2075986;28;20033;-77
2021/12/06 01:11:39;;;;;;;3.67;1.60;;;;;;;;;;2079293;28;20026;-77
2021/12/06 01:12:58;;;;;;;2.83;1.80;;;;;;;;;;2078760;28;20132;-77
2021/12/06 01:14:17;;;;;;;3.67;1.58;;;;;;;;;;2084570;28;20040;-78
2021/12/06 01:15:38;;;;;;;2.30;1.45;;;;;;;;;;2080687;28;20025;-77
2021/12/06 01:16:57;;;;;;;1.92;1.75;;;;;;;;;;2076937;28;20100;-78
2021/12/06 01:18:17;;;;;;;2.03;1.50;;;;;;;;;;2077390;28;20437;-76
2021/12/06 01:19:36;;;;;;;1.77;1.67;;;;;;;;;;2076948;28;20025;-77
2021/12/06 01:21:13;;;;;;;2.70;1.60;;;;;;;;;;2079333;28;20699;-78
2021/12/06 01:22:43;;;;;;;2.33;1.67;;;;;;;;;;2079340;28;20037;-77
2021/12/06 01:24:02;;;;;;;1.92;1.70;;;;;;;;;;2077677;28;20045;-77
2021/12/06 01:25:35;;;;;;;1.58;1.48;;;;;;;;;;2078972;28;20037;-77
2021/12/06 01:29:58;;;;;;;2.58;1.77;;;;;;;;;;2080355;28;20474;-77
2021/12/06 01:31:42;;;;;;;2.78;1.75;;;;;;;;;;2078900;28;20045;-77
2021/12/06 01:39:29;;;;;;;1.90;1.77;;;;;;;;;;2080489;28;20025;-77
2021/12/06 01:40:48;;;;;;;2.13;1.80;;;;;;;;;;2079600;28;20034;-77
2021/12/06 01:42:07;;;;;;;3.13;2.00;;;;;;;;;;2076877;28;20021;-77
2021/12/06 01:43:26;;;;;;;1.77;1.67;;;;;;;;;;2078122;28;20073;-77
2021/12/06 01:44:47;;;;;;;1.75;1.65;;;;;;;;;;2076177;28;20030;-78
2021/12/06 01:46:07;;;;;;;4.38;1.88;;;;;;;;;;2076249;28;20034;-77
2021/12/06 01:47:29;;;;;;;2.10;1.73;;;;;;;;;;2080495;28;20029;-77
2021/12/06 01:48:48;;;;;;;2.80;2.20;;;;;;;;;;2076209;28;20041;-78
2021/12/06 01:50:12;;;;;;;2.50;1.98;;;;;;;;;;2079580;28;20037;-77
2021/12/06 01:51:31;;;;;;;2.05;1.80;;;;;;;;;;2077696;28;20065;-78
2021/12/06 01:52:52;;;;;;;2.28;1.80;;;;;;;;;;2077051;28;20064;-77
2021/12/06 01:54:11;;;;;;;2.13;1.92;;;;;;;;;;2076973;28;20100;-77
2021/12/06 01:55:32;;;;;;;1.63;1.52;;;;;;;;;;2075569;28;20033;-77
2021/12/06 01:56:51;;;;;;;2.42;1.90;;;;;;;;;;2075925;28;20417;-77
2021/12/06 01:58:10;;;;;;;2.03;1.90;;;;;;;;;;2079769;28;20048;-78
2021/12/06 01:59:29;;;;;;;1.88;1.77;;;;;;;;;;2080055;28;20026;-77
2021/12/06 02:00:50;;;;;;;3.60;1.88;;;;;;;;;;2079343;28;20029;-77
2021/12/06 02:02:09;;;;;;;3.72;2.22;;;;;;;;;;2088105;28;20073;-77
2021/12/06 02:03:28;;;;;;;3.38;1.98;;;;;;;;;;2080004;28;20033;-77
2021/12/06 02:04:47;;;;;;;1.92;1.83;;;;;;;;;;2076094;28;20029;-78
2021/12/06 02:06:05;;;;;;;1.90;1.80;;;;;;;;;;2076604;28;20041;-77
2021/12/06 02:07:25;;;;;;;2.45;2.15;;;;;;;;;;2079166;28;20580;-77
2021/12/06 02:08:44;;;;;;;2.08;1.80;;;;;;;;;;2079051;28;20041;-77
2021/12/06 02:10:05;;;;;;;2.40;2.20;;;;;;;;;;2079323;28;20674;-77
2021/12/06 02:11:25;;;;;;;2.60;2.40;;;;;;;;;;2080225;28;20033;-77
2021/12/06 02:12:47;;;;;;;2.42;1.90;;;;;;;;;;2078327;28;20041;-77
2021/12/06 02:15:52;;;;;;;2.30;2.10;;;;;;;;;;2080900;28;20022;-77
2021/12/06 02:17:17;;;;;;;2.13;1.90;;;;;;;;;;2079192;28;20017;-77
2021/12/06 02:20:01;;;;;;;2.15;1.95;;;;;;;;;;2080631;28;20034;-77
2021/12/06 02:21:27;;;;;;;2.40;2.20;;;;;;;;;;2080011;28;20021;-77
2021/12/06 02:22:46;;;;;;;2.50;2.30;;;;;;;;;;2079934;28;20060;-77
2021/12/06 02:24:08;;;;;;;2.00;1.85;;;;;;;;;;2078474;28;20021;-78
2021/12/06 02:25:28;;;;;;;2.40;2.20;;;;;;;;;;2074199;28;20446;-77
2021/12/06 02:26:47;;;;;;;2.22;1.98;;;;;;;;;;2078844;28;20037;-77
2021/12/06 02:28:06;;;;;;;2.25;2.05;;;;;;;;;;2078744;28;20030;-78
2021/12/06 02:29:25;;;;;;;1.90;1.75;;;;;;;;;;2078376;28;20521;-77
2021/12/06 02:30:44;;;;;;;2.47;1.95;;;;;;;;;;2078631;28;20033;-77
2021/12/06 02:32:09;;;;;;;3.00;2.03;;;;;;;;;;2079343;28;20061;-77
2021/12/06 02:33:28;;;;;;;2.83;1.92;;;;;;;;;;2077420;28;20029;-77
2021/12/06 02:34:49;;;;;;;2.35;2.00;;;;;;;;;;2076644;28;20045;-77
2021/12/06 02:36:09;;;;;;;3.03;2.17;;;;;;;;;;2080446;28;20026;-77
2021/12/06 02:37:30;;;;;;;1.83;1.73;;;;;;;;;;2078814;28;20041;-78
2021/12/06 02:38:49;;;;;;;1.80;1.70;;;;;;;;;;2075345;28;20033;-78
2021/12/06 02:40:11;;;;;;;2.35;2.15;;;;;;;;;;2076630;28;20583;-77
2021/12/06 02:41:30;;;;;;;2.28;2.08;;;;;;;;;;2077214;28;20025;-77
2021/12/06 02:42:49;;;;;;;2.78;1.98;;;;;;;;;;2083423;28;20037;-77
2021/12/06 02:44:08;;;;;;;2.80;2.25;;;;;;;;;;2078837;28;20041;-77
2021/12/06 02:45:28;;;;;;;6.50;2.17;;;;;;;;;;2076200;28;20386;-79
2021/12/06 02:46:47;;;;;;;3.03;2.13;;;;;;;;;;2076578;28;20406;-77
2021/12/06 02:48:07;;;;;;;3.13;2.25;;;;;;;;;;2075710;28;20030;-78
2021/12/06 02:49:26;;;;;;;2.13;1.92;;;;;;;;;;2077958;28;20033;-78
2021/12/06 02:50:48;;;;;;;2.17;2.00;;;;;;;;;;2078879;28;20510;-77
2021/12/06 02:52:08;;;;;;;2.58;2.30;;;;;;;;;;2075962;28;20026;-78
2021/12/06 02:53:28;;;;;;;3.03;2.00;;;;;;;;;;2080008;28;20042;-77
2021/12/06 02:54:55;;;;;;;2.30;2.10;;;;;;;;;;2077795;28;20045;-77
2021/12/06 02:56:39;;;;;;;2.50;2.10;;;;;;;;;;2076757;28;20014;-78
2021/12/06 02:57:58;;;;;;;;;;;;;;;;;;2079131;28;20021;-77
2021/12/06 02:59:18;;;;;;;2.25;2.05;;;;;;;;;;2075426;28;19920;-77
2021/12/06 03:00:37;;;;;;;3.80;2.22;;;;;;;;;;2074539;28;20026;-77
2021/12/06 03:01:58;;;;;;;1.77;1.65;;;;;;;;;;2079701;28;20053;-78
2021/12/06 03:03:18;;;;;;;5.85;2.10;;;;;;;;;;2079819;28;20014;-77
2021/12/06 03:04:38;;;;;;;4.15;2.40;;;;;;;;;;2078572;28;20046;-77
2021/12/06 03:05:57;;;;;;;1.95;1.80;;;;;;;;;;2080783;28;20791;-75
2021/12/06 03:07:20;;;;;;;2.05;1.92;;;;;;;;;;2078865;28;20096;-76
2021/12/06 03:08:42;;;;;;;3.58;2.10;;;;;;;;;;2075917;28;20051;-76
2021/12/06 03:10:01;;;;;;;1.90;1.80;;;;;;;;;;2078950;28;20105;-76
2021/12/06 03:11:28;;;;;;;2.42;2.17;;;;;;;;;;2087261;28;20047;-76
2021/12/06 03:12:47;;;;;;;2.00;1.88;;;;;;;;;;2078885;28;20050;-76
2021/12/06 03:14:07;;;;;;;2.45;2.00;;;;;;;;;;2078997;28;20037;-76
2021/12/06 03:15:27;;;;;;;3.05;2.08;;;;;;;;;;2084803;28;20033;-76
2021/12/06 03:16:47;;;;;;;2.05;1.80;;;;;;;;;;2078856;28;20120;-78
2021/12/06 03:18:06;;;;;;;2.35;1.80;;;;;;;;;;2077280;28;20029;-76
2021/12/06 03:19:26;;;;;;;2.30;2.10;;;;;;;;;;2074430;28;20033;-76
2021/12/06 03:20:45;;;;;;;2.75;1.90;;;;;;;;;;2079719;28;20474;-75
2021/12/06 03:22:05;;;;;;;4.72;2.20;;;;;;;;;;2079850;28;20034;-76
2021/12/06 03:23:25;;;;;;;3.15;1.75;;;;;;;;;;2076208;28;20022;-77
2021/12/06 03:24:44;;;;;;;2.30;2.10;;;;;;;;;;2079003;28;20018;-77
2021/12/06 03:26:04;;;;;;;3.67;2.03;;;;;;;;;;2079156;28;20037;-76
2021/12/06 03:27:23;;;;;;;2.05;1.77;;;;;;;;;;2075869;28;20453;-76
2021/12/06 03:28:43;;;;;;;1.90;1.80;;;;;;;;;;2078295;28;20504;-76
2021/12/06 03:30:03;;;;;;;2.72;1.95;;;;;;;;;;2084340;28;20033;-76
2021/12/06 03:31:22;;;;;;;2.25;2.05;;;;;;;;;;2077818;28;20038;-76
2021/12/06 03:32:41;;;;;;;6.28;1.95;;;;;;;;;;2083508;28;20029;-76
2021/12/06 03:34:00;;;;;;;2.13;1.88;;;;;;;;;;2079049;28;20021;-76
2021/12/06 03:35:19;;;;;;;2.10;1.90;;;;;;;;;;2078991;28;20406;-76
2021/12/06 03:36:39;;;;;;;1.63;1.52;;;;;;;;;;2080691;28;20021;-76
2021/12/06 03:37:58;;;;;;;2.85;2.10;;;;;;;;;;2089563;28;20556;-76
2021/12/06 03:39:23;;;;;;;3.10;1.92;;;;;;;;;;2080217;28;20017;-76
2021/12/06 03:40:45;;;;;;;2.15;1.95;;;;;;;;;;2077404;28;20029;-76
2021/12/06 03:42:05;;;;;;;3.78;2.10;;;;;;;;;;2077518;28;20092;-77
2021/12/06 03:43:23;;;;;;;3.63;2.13;;;;;;;;;;2085214;28;20040;-77
2021/12/06 03:44:43;;;;;;;1.92;1.83;;;;;;;;;;2079326;28;20025;-77
2021/12/06 03:46:02;;;;;;;1.70;1.60;;;;;;;;;;2086514;28;20456;-76
2021/12/06 03:47:23;;;;;;;4.13;2.05;;;;;;;;;;2081000;28;20057;-76
2021/12/06 03:48:42;;;;;;;1.98;1.77;;;;;;;;;;2079487;28;20026;-76
2021/12/06 03:50:02;;;;;;;5.13;2.28;;;;;;;;;;2077031;28;20711;-76
2021/12/06 03:51:21;;;;;;;2.25;2.10;;;;;;;;;;2077557;28;20034;-75
2021/12/06 03:52:40;;;;;;;2.33;2.00;;;;;;;;;;2076607;28;20033;-75
2021/12/06 03:53:59;;;;;;;1.70;1.60;;;;;;;;;;2077534;28;20030;-75
2021/12/06 03:55:18;;;;;;;5.38;2.28;;;;;;;;;;2078521;28;20462;-75
2021/12/06 03:56:37;;;;;;;5.10;2.25;;;;;;;;;;2076467;28;20100;-76
2021/12/06 03:57:56;;;;;;;5.05;2.30;;;;;;;;;;2077587;28;20026;-76
2021/12/06 03:59:15;;;;;;;6.50;2.00;;;;;;;;;;2077087;28;20025;-76
2021/12/06 04:00:34;;;;;;;3.22;1.60;;;;;;;;;;2075872;28;20041;-76
2021/12/06 04:01:53;;;;;;;2.97;1.65;;;;;;;;;;2080948;28;20037;-76
2021/12/06 04:03:12;;;;;;;4.47;1.90;;;;;;;;;;2076720;28;20497;-77
2021/12/06 04:04:31;;;;;;;4.55;1.88;;;;;;;;;;2076919;28;20025;-76
2021/12/06 04:05:51;;;;;;;1.83;1.73;;;;;;;;;;2080707;28;20053;-76
2021/12/06 04:07:11;;;;;;;2.03;1.77;;;;;;;;;;2079583;28;20033;-78
2021/12/06 04:08:30;;;;;;;2.70;2.38;;;;;;;;;;2076312;28;20029;-77
2021/12/06 04:09:49;;;;;;;4.78;1.90;;;;;;;;;;2077736;28;20029;-77
2021/12/06 04:11:08;;;;;;;1.90;1.80;;;;;;;;;;2075656;28;20025;-78
2021/12/06 04:12:26;;;;;;;4.50;2.05;;;;;;;;;;2079685;28;20045;-76
2021/12/06 04:13:45;;;;;;;2.50;1.92;;;;;;;;;;2081150;28;20037;-77
2021/12/06 04:15:07;;;;;;;2.10;2.00;;;;;;;;;;2077102;28;20026;-77
2021/12/06 04:16:26;;;;;;;1.58;1.48;;;;;;;;;;2079693;28;20033;-76
2021/12/06 04:17:46;;;;;;;3.90;2.10;;;;;;;;;;2080584;28;20025;-76
2021/12/06 04:19:06;;;;;;;5.22;1.75;;;;;;;;;;2076091;28;20021;-77
2021/12/06 04:20:26;;;;;;;2.28;1.88;;;;;;;;;;2077258;28;20014;-77
2021/12/06 04:21:45;;;;;;;1.77;1.52;;;;;;;;;;2076867;28;20037;-76
2021/12/06 04:23:05;;;;;;;1.55;1.45;;;;;;;;;;2080754;28;20100;-77
2021/12/06 04:24:24;;;;;;;3.05;1.90;;;;;;;;;;2086485;28;20535;-76
2021/12/06 04:25:44;;;;;;;1.92;1.80;;;;;;;;;;2078076;28;20064;-76
2021/12/06 04:27:13;;;;;;;5.68;2.08;;;;;;;;;;2076828;28;20034;-77
2021/12/06 04:28:34;;;;;;;3.08;2.20;;;;;;;;;;2087016;28;20033;-76
2021/12/06 04:29:53;;;;;;;2.10;1.90;;;;;;;;;;2081101;28;20025;-76
2021/12/06 04:31:12;;;;;;;4.97;2.25;;;;;;;;;;2077442;28;20041;-77
2021/12/06 04:32:31;;;;;;;3.92;2.10;;;;;;;;;;2076512;28;20587;-76
2021/12/06 04:33:50;;;;;;;3.40;2.22;;;;;;;;;;2077354;28;20057;-77
2021/12/06 04:35:09;;;;;;;4.57;1.40;;;;;;;;;;2080506;28;20061;-76
2021/12/06 04:36:28;;;;;;;3.97;2.10;;;;;;;;;;2076788;28;20461;-76
2021/12/06 04:37:46;;;;;;;2.42;2.10;;;;;;;;;;2076574;28;20409;-77
2021/12/06 04:39:07;;;;;;;3.75;1.98;;;;;;;;;;2075969;28;20700;-76
2021/12/06 04:40:27;;;;;;;3.30;2.53;;;;;;;;;;2076150;28;20399;-76
2021/12/06 04:41:46;;;;;;;2.53;2.00;;;;;;;;;;2076997;28;20041;-76
2021/12/06 04:43:05;;;;;;;4.25;2.00;;;;;;;;;;2079295;28;21515;-77
2021/12/06 04:44:24;;;;;;;4.60;2.15;;;;;;;;;;2080393;28;20033;-77
2021/12/06 04:45:43;;;;;;;2.88;2.10;;;;;;;;;;2076375;28;20034;-77
2021/12/06 04:47:03;;;;;;;2.00;1.90;;;;;;;;;;2077115;28;20026;-76
2021/12/06 04:48:22;;;;;;;5.50;2.15;;;;;;;;;;2081709;28;20029;-76
2021/12/06 04:49:41;;;;;;;3.60;2.53;;;;;;;;;;2079130;28;20033;-76
2021/12/06 04:51:00;;;;;;;3.35;2.40;;;;;;;;;;2079124;28;20033;-77
2021/12/06 04:52:20;;;;;;;4.53;2.25;;;;;;;;;;2079565;28;20033;-77
2021/12/06 04:53:40;;;;;;;4.20;2.20;;;;;;;;;;2086011;28;20021;-76
2021/12/06 04:55:00;;;;;;;3.72;2.25;;;;;;;;;;2079591;28;20030;-77
2021/12/06 04:56:25;;;;;;;4.40;2.10;;;;;;;;;;2076398;28;20029;-77
2021/12/06 04:57:46;;;;;;;2.00;1.75;;;;;;;;;;2077561;28;20041;-77
2021/12/06 04:59:04;;;;;;;6.72;1.90;;;;;;;;;;2076878;28;20033;-77
2021/12/06 05:00:29;;;;;;;2.55;1.90;;;;;;;;;;2076482;28;20100;-77
2021/12/06 05:01:49;;;;;;;3.85;2.10;;;;;;;;;;2076322;28;20085;-76
2021/12/06 05:03:08;;;;;;;2.58;2.33;;;;;;;;;;2077204;28;20037;-76
2021/12/06 05:04:29;;;;;;;2.80;2.08;;;;;;;;;;2076992;28;20440;-76
2021/12/06 05:05:49;;;;;;;2.75;2.00;;;;;;;;;;2077045;28;20037;-76
2021/12/06 05:07:11;;;;;;;8.02;5.25;;;;;;;;;;2074690;28;20037;-76
2021/12/06 05:08:37;;;;;;;5.13;1.70;;;;;;;;;;2080326;28;20506;-76
2021/12/06 05:09:56;;;;;;;3.53;2.20;;;;;;;;;;2080884;28;20041;-77
2021/12/06 05:11:17;;;;;;;2.33;2.13;;;;;;;;;;2079524;28;20042;-76
2021/12/06 05:12:36;;;;;;;2.95;2.30;;;;;;;;;;2079107;28;20057;-76
2021/12/06 05:13:56;;;;;;;2.97;2.35;;;;;;;;;;2078810;28;20038;-77
2021/12/06 05:15:15;;;;;;;2.67;2.28;;;;;;;;;;2079434;28;20025;-76
2021/12/06 05:16:35;;;;;;;3.13;2.47;;;;;;;;;;2079161;28;20100;-76
2021/12/06 05:17:54;;;;;;;2.53;1.92;;;;;;;;;;2075468;28;20057;-77
2021/12/06 05:19:13;;;;;;;2.10;2.00;;;;;;;;;;2075303;28;20034;-77
2021/12/06 05:20:34;;;;;;;2.65;2.10;;;;;;;;;;2079435;28;20041;-76
2021/12/06 05:21:53;;;;;;;2.35;2.15;;;;;;;;;;2069938;28;20038;-78
2021/12/06 05:23:12;;;;;;;2.47;2.28;;;;;;;;;;2073362;28;20026;-77
2021/12/06 05:24:31;;;;;;;3.38;2.20;;;;;;;;;;2076658;28;20022;-76
2021/12/06 05:25:50;;;;;;;2.22;2.03;;;;;;;;;;2078723;28;20025;-76
2021/12/06 05:27:08;;;;;;;10.18;5.78;;;;;;;;;;2075561;28;20021;-76
2021/12/06 05:28:31;;;;;;;8.82;5.68;;;;;;;;;;2080467;28;20030;-76
2021/12/06 05:29:55;;;;;;;3.22;2.28;;;;;;;;;;2080326;28;20022;-78
2021/12/06 05:31:17;;;;;;;3.20;2.53;;;;;;;;;;2078898;28;20089;-76
2021/12/06 05:32:37;;;;;;;5.45;3.30;;;;;;;;;;2079361;28;20034;-76
2021/12/06 05:34:02;;;;;;;4.88;2.58;;;;;;;;;;2085156;28;20033;-76
2021/12/06 05:35:21;;;;;;;3.13;2.13;;;;;;;;;;2077909;28;20116;-77
2021/12/06 05:36:40;;;;;;;6.90;2.40;;;;;;;;;;2080413;28;20060;-76
2021/12/06 05:38:00;;;;;;;2.33;1.92;;;;;;;;;;2075133;28;20490;-76
2021/12/06 05:39:19;;;;;;;4.80;2.22;;;;;;;;;;2078632;28;20089;-76
2021/12/06 05:40:39;;;;;;;3.45;2.33;;;;;;;;;;2080078;28;20038;-76
2021/12/06 05:41:58;;;;;;;5.80;2.25;;;;;;;;;;2072858;28;20022;-78
2021/12/06 05:43:17;;;;;;;3.47;2.33;;;;;;;;;;2075268;28;20029;-76
2021/12/06 05:44:37;;;;;;;6.43;2.83;;;;;;;;;;2076367;28;20029;-77
2021/12/06 05:45:56;;;;;;;3.10;2.50;;;;;;;;;;2078648;28;20026;-79
2021/12/06 05:47:15;;;;;;;7.05;2.58;;;;;;;;;;2078466;28;20038;-76
2021/12/06 05:48:35;;;;;;;5.53;2.88;;;;;;;;;;2076182;28;20112;-77
2021/12/06 05:49:54;;;;;;;5.22;2.47;;;;;;;;;;2079141;28;20073;-76
2021/12/06 05:51:12;;;;;;;4.03;2.10;;;;;;;;;;2077013;28;20029;-77
2021/12/06 05:52:31;;;;;;;6.10;2.70;;;;;;;;;;2075076;28;20041;-75
2021/12/06 05:53:50;;;;;;;5.05;2.47;;;;;;;;;;2075745;28;20034;-78
2021/12/06 05:55:10;;;;;;;7.40;2.88;;;;;;;;;;2077024;28;20022;-74
2021/12/06 05:56:29;;;;;;;5.13;2.42;;;;;;;;;;2075409;28;20057;-77
2021/12/06 05:57:48;;;;;;;11.27;5.80;;;;;;;;;;2074815;28;20042;-76
2021/12/06 05:59:08;;;;;;;9.23;4.38;;;;;;;;;;2079051;28;20034;-76
2021/12/06 06:00:29;;;;;;;6.18;3.17;;;;;;;;;;2079391;28;20470;-76
2021/12/06 06:01:50;;;;;;;4.57;2.33;;;;;;;;;;2079315;28;20466;-76
2021/12/06 06:03:10;;;;;;;3.03;2.72;;;;;;;;;;2075912;28;20267;-76
2021/12/06 06:04:28;;;;;;;3.85;2.90;;;;;;;;;;2078451;28;20033;-76
2021/12/06 06:05:47;;;;;;;4.88;2.72;;;;;;;;;;2079440;28;20068;-76
2021/12/06 06:07:06;;;;;;;3.55;2.40;;;;;;;;;;2080248;28;20038;-75
2021/12/06 06:08:26;;;;;;;8.48;2.88;;;;;;;;;;2079576;28;20033;-77
2021/12/06 06:09:47;;;;;;;6.95;2.88;;;;;;;;;;2079427;28;20029;-76
2021/12/06 06:11:06;;;;;;;2.93;2.70;;;;;;;;;;2083573;28;20037;-78
2021/12/06 06:12:25;;;;;;;13.50;2.95;;;;;;;;;;2079609;28;20354;-77
2021/12/06 06:13:44;;;;;;;5.32;2.85;;;;;;;;;;2076893;28;20037;-78
2021/12/06 06:15:03;;;;;;;15.77;3.85;;;;;;;;;;2077614;28;20108;-79
2021/12/06 06:16:25;;;;;;;13.00;3.88;;;;;;;;;;2077283;28;20037;-80
2021/12/06 06:17:44;;;;;;;9.85;2.90;;;;;;;;;;2079376;28;20385;-77
2021/12/06 06:19:04;;;;;;;5.53;3.22;;;;;;;;;;2078165;28;20033;-79
2021/12/06 06:20:26;;;;;;;3.38;2.67;;;;;;;;;;2080254;28;20146;-76
2021/12/06 06:21:45;;;;;;;12.75;2.67;;;;;;;;;;2083837;28;20481;-78
2021/12/06 06:23:05;;;;;;;5.07;2.53;;;;;;;;;;2081013;28;20478;-79
2021/12/06 06:24:24;;;;;;;4.13;2.47;;;;;;;;;;2078821;28;20029;-81
2021/12/06 06:25:43;;;;;;;3.47;2.72;;;;;;;;;;2074443;28;20068;-79
2021/12/06 06:27:02;;;;;;;7.22;3.08;;;;;;;;;;2076765;28;20049;-78
2021/12/06 06:28:21;;;;;;;4.60;2.97;;;;;;;;;;2075121;28;20033;-80
2021/12/06 06:29:40;;;;;;;7.05;3.22;;;;;;;;;;2075156;28;20509;-78
2021/12/06 06:30:59;;;;;;;5.05;2.88;;;;;;;;;;2079012;28;20037;-78
2021/12/06 06:32:18;;;;;;;7.45;2.58;;;;;;;;;;2075942;28;20068;-78
2021/12/06 06:33:37;;;;;;;6.55;2.75;;;;;;;;;;2075871;28;20069;-78
2021/12/06 06:34:56;;;;;;;8.35;3.70;;;;;;;;;;2074617;28;20025;-78
2021/12/06 06:36:15;;;;;;;6.43;2.83;;;;;;;;;;2079466;28;20021;-77
2021/12/06 06:37:34;;;;;;;6.63;2.83;;;;;;;;;;2080258;28;20029;-78
2021/12/06 06:38:53;;;;;;;5.45;2.60;;;;;;;;;;2078497;28;20037;-77
2021/12/06 06:40:12;;;;;;;3.72;2.72;;;;;;;;;;2079483;28;20029;-77
2021/12/06 06:41:32;;;;;;;3.28;2.88;;;;;;;;;;2078048;28;20037;-77
2021/12/06 06:42:51;;;;;;;4.68;2.92;;;;;;;;;;2077754;28;20524;-79
2021/12/06 06:44:11;;;;;;;5.68;3.00;;;;;;;;;;2074876;28;20037;-78
2021/12/06 06:45:30;;;;;;;10.43;3.33;;;;;;;;;;2079263;28;20033;-79
2021/12/06 06:46:50;;;;;;;8.88;3.15;;;;;;;;;;2074244;28;20026;-77
2021/12/06 06:48:09;;;;;;;12.63;3.33;;;;;;;;;;2076384;28;20089;-76
2021/12/06 06:49:31;;;;;;;13.60;3.22;;;;;;;;;;2084173;28;20029;-78
2021/12/06 06:50:49;;;;;;;9.47;3.80;;;;;;;;;;2079357;28;20025;-78
2021/12/06 06:52:08;;;;;;;8.35;3.10;;;;;;;;;;2080579;28;20326;-79
2021/12/06 06:53:27;;;;;;;6.22;3.03;;;;;;;;;;2068668;28;20105;-77
2021/12/06 06:54:46;;;;;;;5.43;3.33;;;;;;;;;;2077134;28;20045;-78
2021/12/06 06:56:05;;;;;;;3.50;3.15;;;;;;;;;;2078597;28;20026;-78
2021/12/06 06:57:24;;;;;;;3.95;2.80;;;;;;;;;;2078796;28;20033;-77
2021/12/06 06:58:43;;;;;;;5.65;2.80;;;;;;;;;;2079879;28;20199;-78
2021/12/06 07:00:04;;;;;;;7.13;2.83;;;;;;;;;;2078663;28;20065;-78
2021/12/06 07:01:23;;;;;;;5.10;3.40;;;;;;;;;;2075180;28;20030;-77
2021/12/06 07:02:43;;;;;;;5.60;3.03;;;;;;;;;;2079242;28;20045;-77
2021/12/06 07:04:02;;;;;;;4.25;2.85;;;;;;;;;;2078445;28;20033;-77
2021/12/06 07:05:22;;;;;;;7.65;3.15;;;;;;;;;;2079303;28;20568;-77
2021/12/06 07:06:41;;;;;;;12.07;3.42;;;;;;;;;;2077250;28;20108;-78
2021/12/06 07:08:00;;;;;;;5.70;2.72;;;;;;;;;;2075961;28;20501;-77
2021/12/06 07:09:19;;;;;;;4.90;3.25;;;;;;;;;;2075592;28;20038;-79
2021/12/06 07:10:38;;;;;;;5.75;2.90;;;;;;;;;;2077264;28;20025;-78
2021/12/06 07:11:58;;;;;;;4.40;3.05;;;;;;;;;;2076651;28;20029;-78
2021/12/06 07:13:17;;;;;;;6.00;3.00;;;;;;;;;;2076748;28;20045;-77
2021/12/06 07:14:36;;;;;;;5.00;3.22;;;;;;;;;;2077809;28;20168;-77
2021/12/06 07:15:55;;;;;;;4.50;3.40;;;;;;;;;;2081107;28;20064;-78
2021/12/06 07:17:15;;;;;;;5.00;3.22;;;;;;;;;;2080574;28;20057;-78
2021/12/06 07:18:34;;;;;;;6.45;3.05;;;;;;;;;;2077381;28;20025;-78
2021/12/06 07:19:53;;;;;;;2.90;2.70;;;;;;;;;;2077657;28;20034;-78
2021/12/06 07:21:12;;;;;;;4.05;3.45;;;;;;;;;;2077784;28;20930;-77
2021/12/06 07:22:31;;;;;;;4.32;3.10;;;;;;;;;;2075723;28;20029;-79
2021/12/06 07:23:51;;;;;;;7.50;2.97;;;;;;;;;;2075615;28;20104;-78
2021/12/06 07:25:11;;;;;;;10.95;3.67;;;;;;;;;;2077614;28;20108;-78
2021/12/06 07:26:30;;;;;;;9.30;4.60;;;;;;;;;;2079795;28;20037;-78
2021/12/06 07:27:50;;;;;;;15.95;8.63;;;;;;;;;;2080594;28;20105;-77
2021/12/06 07:29:09;;;;;;;5.43;3.15;;;;;;;;;;2076432;28;20022;-77
2021/12/06 07:30:28;;;;;;;10.73;5.22;;;;;;;;;;2079517;28;20034;-77
2021/12/06 07:31:47;;;;;;;8.52;3.47;;;;;;;;;;2076743;28;20037;-77
2021/12/06 07:33:06;;;;;;;8.25;3.33;;;;;;;;;;2077911;28;20471;-77
2021/12/06 07:34:25;;;;;;;10.88;4.05;;;;;;;;;;2077270;28;20070;-77
2021/12/06 07:35:44;;;;;;;15.60;4.22;;;;;;;;;;2080175;28;20029;-77
2021/12/06 07:37:04;;;;;;;12.13;4.20;;;;;;;;;;2081262;28;20021;-77
2021/12/06 07:38:22;;;;;;;10.35;4.05;;;;;;;;;;2080123;28;20017;-77
2021/12/06 07:39:41;;;;;;;16.08;4.72;;;;;;;;;;2078965;28;20033;-79
2021/12/06 07:41:01;;;;;;;5.57;3.20;;;;;;;;;;2081622;28;20026;-77
2021/12/06 07:42:19;;;;;;;8.15;3.33;;;;;;;;;;2079479;28;20116;-78
2021/12/06 07:43:38;;;;;;;7.40;3.63;;;;;;;;;;2076570;28;20034;-77
2021/12/06 07:44:57;;;;;;;4.28;3.53;;;;;;;;;;2078103;28;20041;-77
2021/12/06 07:46:17;;;;;;;5.38;3.88;;;;;;;;;;2076862;28;20018;-79
2021/12/06 07:47:37;;;;;;;7.07;3.47;;;;;;;;;;2079809;28;20531;-76
2021/12/06 07:48:56;;;;;;;8.52;3.88;;;;;;;;;;2079045;28;20033;-77
2021/12/06 07:50:16;;;;;;;7.88;4.20;;;;;;;;;;2077591;28;20033;-77
2021/12/06 07:51:35;;;;;;;10.43;3.88;;;;;;;;;;2085183;28;20130;-76
2021/12/06 07:52:54;;;;;;;6.75;4.03;;;;;;;;;;2080550;28;20436;-77
2021/12/06 07:54:14;;;;;;;7.80;3.72;;;;;;;;;;2079273;28;20041;-77
2021/12/06 07:55:34;;;;;;;14.75;4.60;;;;;;;;;;2080325;28;20029;-77
2021/12/06 07:56:54;;;;;;;7.53;3.92;;;;;;;;;;2080153;28;20026;-76
2021/12/06 07:58:13;;;;;;;13.35;4.82;;;;;;;;;;2080303;28;20037;-76
2021/12/06 07:59:33;;;;;;;12.60;4.25;;;;;;;;;;2080291;28;20121;-76
2021/12/06 08:00:53;;;;;;;16.73;4.57;;;;;;;;;;2081743;28;20401;-77
2021/12/06 08:02:11;;;;;;;7.38;3.97;;;;;;;;;;2079842;28;20034;-76
2021/12/06 08:03:31;;;;;;;22.70;5.10;;;;;;;;;;2076579;28;20499;-77
2021/12/06 08:05:00;;;;;;;10.60;4.63;;;;;;;;;;2076846;28;20033;-77
2021/12/06 08:06:19;;;;;;;11.48;4.30;;;;;;;;;;2077307;28;20041;-77
2021/12/06 08:07:37;;;;;;;11.60;4.47;;;;;;;;;;2077238;28;20045;-77
2021/12/06 08:08:56;;;;;;;12.27;4.55;;;;;;;;;;2081240;28;20030;-76
2021/12/06 08:10:15;;;;;;;8.57;4.13;;;;;;;;;;2080717;28;20109;-76
2021/12/06 08:11:34;;;;;;;14.32;5.10;;;;;;;;;;2080851;28;20033;-76
2021/12/06 08:12:53;;;;;;;21.10;5.05;;;;;;;;;;2080789;28;20049;-78